createdAt,value
2023-02-11T00:00:23.250Z,54.50
2023-02-11T00:01:23.265Z,50.20
2023-02-11T00:02:23.269Z,44.30
2023-02-11T00:03:23.293Z,46.80
2023-02-11T00:04:23.217Z,45.20
2023-02-11T00:05:23.168Z,48.10
2023-02-11T00:06:23.153Z,48.80
2023-02-11T00:07:23.144Z,44.10
2023-02-11T00:08:23.151Z,53.90
2023-02-11T00:09:23.120Z,45.60
2023-02-11T00:10:23.105Z,48.40
2023-02-11T00:11:23.090Z,45.20
2023-02-11T00:12:23.071Z,47.60
2023-02-11T00:13:23.058Z,45.60
2023-02-11T00:14:23.058Z,52.10
2023-02-11T00:15:23.046Z,47.00
2023-02-11T00:16:23.048Z,48.90
2023-02-11T00:17:23.002Z,44.30
2023-02-11T00:18:23.063Z,47.60
2023-02-11T00:19:22.990Z,47.90
2023-02-11T00:20:22.972Z,49.40
2023-02-11T00:21:22.963Z,48.20
2023-02-11T00:22:22.943Z,52.00
2023-02-11T00:23:22.930Z,47.40
2023-02-11T00:24:22.938Z,50.70
2023-02-11T00:25:22.912Z,45.70
2023-02-11T00:26:22.920Z,49.50
2023-02-11T00:27:22.874Z,48.40
2023-02-11T00:28:22.975Z,51.30
2023-02-11T00:29:22.853Z,49.00
2023-02-11T00:30:22.849Z,48.50
2023-02-11T00:31:22.998Z,48.00
2023-02-11T00:32:22.805Z,48.70
2023-02-11T00:33:22.803Z,47.90
2023-02-11T00:34:22.797Z,43.60
2023-02-11T00:35:22.777Z,49.10
2023-02-11T00:36:22.757Z,49.60
2023-02-11T00:37:22.747Z,45.40
2023-02-11T00:38:22.726Z,46.50
2023-02-11T00:39:22.728Z,47.60
2023-02-11T00:40:22.698Z,45.70
2023-02-11T00:41:22.681Z,48.20
2023-02-11T00:42:22.676Z,44.90
2023-02-11T00:43:22.656Z,47.00
2023-02-11T00:44:22.674Z,46.00
2023-02-11T00:45:22.648Z,47.30
2023-02-11T00:46:22.675Z,43.80
2023-02-11T00:47:22.596Z,48.50
2023-02-11T00:48:22.586Z,45.30
2023-02-11T00:49:22.596Z,45.20
2023-02-11T00:50:22.590Z,45.20
2023-02-11T00:51:22.562Z,43.20
2023-02-11T00:52:22.544Z,43.10
2023-02-11T00:53:22.524Z,47.70
2023-02-11T00:54:22.517Z,44.60
2023-02-11T00:55:22.521Z,48.60
2023-02-11T00:56:22.476Z,50.30
2023-02-11T00:57:22.491Z,44.00
2023-02-11T00:58:22.509Z,48.00
2023-02-11T00:59:22.457Z,44.30
2023-02-11T01:00:22.462Z,46.90
2023-02-11T01:01:22.474Z,44.70
2023-02-11T01:02:22.434Z,47.10
2023-02-11T01:03:22.457Z,43.10
2023-02-11T01:04:22.463Z,48.40
2023-02-11T01:05:22.397Z,45.80
2023-02-11T01:06:22.365Z,43.70
2023-02-11T01:07:22.338Z,39.20
2023-02-11T01:08:22.322Z,44.80
2023-02-11T01:09:22.321Z,42.50
2023-02-11T01:10:22.311Z,45.40
2023-02-11T01:11:22.304Z,45.50
2023-02-11T01:12:22.288Z,39.30
2023-02-11T01:13:22.248Z,37.60
2023-02-11T01:14:22.266Z,39.10
2023-02-11T01:15:22.242Z,42.00
2023-02-11T01:16:22.334Z,43.40
2023-02-11T01:17:22.237Z,43.50
2023-02-11T01:18:22.222Z,45.60
2023-02-11T01:19:22.194Z,39.50
2023-02-11T01:20:22.168Z,48.30
2023-02-11T01:21:22.166Z,50.10
2023-02-11T01:22:22.177Z,37.80
2023-02-11T01:23:22.152Z,42.20
2023-02-11T01:24:22.128Z,39.80
2023-02-11T01:25:22.134Z,40.90
2023-02-11T01:26:22.098Z,39.30
2023-02-11T01:27:22.077Z,48.00
2023-02-11T01:28:22.101Z,41.70
2023-02-11T01:29:22.069Z,39.20
2023-02-11T01:30:22.040Z,41.80
2023-02-11T01:31:22.139Z,39.50
2023-02-11T01:32:22.079Z,37.50
2023-02-11T01:33:21.986Z,46.20
2023-02-11T01:34:22.020Z,42.30
2023-02-11T01:35:21.974Z,40.60
2023-02-11T01:36:21.966Z,46.60
2023-02-11T01:37:21.946Z,42.10
2023-02-11T01:38:21.929Z,43.10
2023-02-11T01:39:22.680Z,40.40
2023-02-11T01:40:22.892Z,39.00
2023-02-11T01:41:21.880Z,41.30
2023-02-11T01:42:21.882Z,38.80
2023-02-11T01:43:21.857Z,33.90
2023-02-11T01:44:21.872Z,38.30
2023-02-11T01:45:21.834Z,39.40
2023-02-11T01:46:21.880Z,40.50
2023-02-11T01:47:21.801Z,37.50
2023-02-11T01:48:21.793Z,34.70
2023-02-11T01:49:21.844Z,41.10
2023-02-11T01:50:21.797Z,37.80
2023-02-11T01:51:21.748Z,39.90
2023-02-11T01:52:21.740Z,39.20
2023-02-11T01:53:21.726Z,36.00
2023-02-11T01:54:21.727Z,38.30
2023-02-11T01:55:21.711Z,40.50
2023-02-11T01:56:21.708Z,37.10
2023-02-11T01:57:21.679Z,35.70
2023-02-11T01:58:21.687Z,37.40
2023-02-11T01:59:21.652Z,36.90
2023-02-11T02:00:21.629Z,37.60
2023-02-11T02:01:21.625Z,34.90
2023-02-11T02:02:21.599Z,35.40
2023-02-11T02:03:21.595Z,33.60
2023-02-11T02:04:21.580Z,39.00
2023-02-11T02:05:21.594Z,35.60
2023-02-11T02:06:21.555Z,34.60
2023-02-11T02:07:21.531Z,34.20
2023-02-11T02:08:21.522Z,36.10
2023-02-11T02:09:21.499Z,33.00
2023-02-11T02:10:21.510Z,35.60
2023-02-11T02:11:21.492Z,36.30
2023-02-11T02:12:21.485Z,36.50
2023-02-11T02:13:21.455Z,34.60
2023-02-11T02:14:21.462Z,38.30
2023-02-11T02:15:21.449Z,33.30
2023-02-11T02:16:21.458Z,34.70
2023-02-11T02:17:21.411Z,33.80
2023-02-11T02:18:21.393Z,34.50
2023-02-11T02:19:21.397Z,36.80
2023-02-11T02:20:21.369Z,34.70
2023-02-11T02:21:21.335Z,32.30
2023-02-11T02:22:21.335Z,38.70
2023-02-11T02:23:21.309Z,39.10
2023-02-11T02:24:21.296Z,31.60
2023-02-11T02:25:21.283Z,32.00
2023-02-11T02:26:21.290Z,34.10
2023-02-11T02:27:21.258Z,38.60
2023-02-11T02:28:21.282Z,37.00
2023-02-11T02:29:21.239Z,35.60
2023-02-11T02:30:21.312Z,33.50
2023-02-11T02:31:21.259Z,33.60
2023-02-11T02:32:21.192Z,33.00
2023-02-11T02:33:22.998Z,37.00
2023-02-11T02:34:21.172Z,37.70
2023-02-11T02:35:21.165Z,31.30
2023-02-11T02:36:21.150Z,36.30
2023-02-11T02:37:21.145Z,29.80
2023-02-11T02:38:21.125Z,31.70
2023-02-11T02:39:21.108Z,37.10
2023-02-11T02:40:21.108Z,35.30
2023-02-11T02:41:21.093Z,33.60
2023-02-11T02:42:21.077Z,32.20
2023-02-11T02:43:21.061Z,32.00
2023-02-11T02:44:21.026Z,35.80
2023-02-11T02:45:21.067Z,30.20
2023-02-11T02:46:21.112Z,34.60
2023-02-11T02:47:21.051Z,31.70
2023-02-11T02:48:20.982Z,30.10
2023-02-11T02:49:20.977Z,30.70
2023-02-11T02:50:21.002Z,32.10
2023-02-11T02:51:20.943Z,31.30
2023-02-11T02:52:20.939Z,30.80
2023-02-11T02:53:20.910Z,34.00
2023-02-11T02:54:20.905Z,29.90
2023-02-11T02:55:20.906Z,29.30
2023-02-11T02:56:20.882Z,31.90
2023-02-11T02:57:20.859Z,28.90
2023-02-11T02:58:20.843Z,31.80
2023-02-11T02:59:20.848Z,32.90
2023-02-11T03:00:20.865Z,40.90
2023-02-11T03:01:20.830Z,28.60
2023-02-11T03:02:20.831Z,29.90
2023-02-11T03:03:20.851Z,38.50
2023-02-11T03:04:20.778Z,34.10
2023-02-11T03:05:20.763Z,29.80
2023-02-11T03:06:20.769Z,33.40
2023-02-11T03:07:20.723Z,29.60
2023-02-11T03:08:20.717Z,32.70
2023-02-11T03:09:20.710Z,32.30
2023-02-11T03:10:20.722Z,34.60
2023-02-11T03:11:20.700Z,30.20
2023-02-11T03:12:20.650Z,28.80
2023-02-11T03:13:20.645Z,30.60
2023-02-11T03:14:20.638Z,28.60
2023-02-11T03:15:20.637Z,29.90
2023-02-11T03:16:20.632Z,31.00
2023-02-11T03:17:20.585Z,28.20
2023-02-11T03:18:20.600Z,33.30
2023-02-11T03:19:20.582Z,34.80
2023-02-11T03:20:20.585Z,30.10
2023-02-11T03:21:20.600Z,34.70
2023-02-11T03:22:20.535Z,29.00
2023-02-11T03:23:20.509Z,33.30
2023-02-11T03:24:41.503Z,34.20
2023-02-11T03:25:20.518Z,33.50
2023-02-11T03:26:20.479Z,34.10
2023-02-11T03:27:21.543Z,31.30
2023-02-11T03:28:20.533Z,33.70
2023-02-11T03:37:10.677Z,45.20
2023-02-11T03:37:32.196Z,36.10
2023-02-11T03:38:55.397Z,35.50
2023-02-11T03:39:32.195Z,33.60
2023-02-11T03:40:35.660Z,35.00
2023-02-11T03:41:32.152Z,35.70
2023-02-11T03:42:54.185Z,34.50
2023-02-11T03:43:32.125Z,36.90
2023-02-11T03:44:32.118Z,33.80
2023-02-11T03:45:32.170Z,34.00
2023-02-11T03:46:32.085Z,33.50
2023-02-11T03:47:32.070Z,38.90
2023-02-11T03:48:32.064Z,30.80
2023-02-11T03:49:32.060Z,34.50
2023-02-11T03:50:32.068Z,37.40
2023-02-11T03:51:32.044Z,42.00
2023-02-11T03:52:32.008Z,36.30
2023-02-11T03:53:31.995Z,36.50
2023-02-11T03:54:32.008Z,31.10
2023-02-11T03:55:31.967Z,41.40
2023-02-11T03:56:31.956Z,36.30
2023-02-11T03:57:31.935Z,37.40
2023-02-11T03:58:31.934Z,32.50
2023-02-11T03:59:31.911Z,41.80
2023-02-11T04:00:31.987Z,33.60
2023-02-11T04:01:31.921Z,36.60
2023-02-11T04:02:31.890Z,37.20
2023-02-11T04:03:31.955Z,35.30
2023-02-11T04:04:31.854Z,35.20
2023-02-11T04:05:31.850Z,35.20
2023-02-11T04:06:31.830Z,40.10
2023-02-11T04:07:31.825Z,36.30
2023-02-11T04:08:31.821Z,40.00
2023-02-11T04:09:31.787Z,35.40
2023-02-11T04:10:31.797Z,33.00
2023-02-11T04:11:31.776Z,36.00
2023-02-11T04:12:31.755Z,36.80
2023-02-11T04:13:31.723Z,33.10
2023-02-11T04:14:31.733Z,34.50
2023-02-11T04:15:31.721Z,37.70
2023-02-11T04:16:31.781Z,39.20
2023-02-11T04:17:31.677Z,37.20
2023-02-11T04:18:31.664Z,35.40
2023-02-11T04:19:31.681Z,40.40
2023-02-11T04:20:31.674Z,32.00
2023-02-11T04:21:31.643Z,41.60
2023-02-11T04:22:31.634Z,39.40
2023-02-11T04:23:31.595Z,34.30
2023-02-11T04:24:31.629Z,34.60
2023-02-11T04:25:31.593Z,37.70
2023-02-11T04:26:31.580Z,33.70
2023-02-11T04:27:31.547Z,36.00
2023-02-11T04:28:31.634Z,38.70
2023-02-11T04:29:31.541Z,34.20
2023-02-11T04:30:31.551Z,33.40
2023-02-11T04:31:31.528Z,38.10
2023-02-11T04:32:31.486Z,35.80
2023-02-11T04:33:31.503Z,38.90
2023-02-11T04:34:31.454Z,34.10
2023-02-11T04:35:31.445Z,35.90
2023-02-11T04:36:31.687Z,33.30
2023-02-11T04:37:31.446Z,36.10
2023-02-11T04:38:31.402Z,38.00
2023-02-11T04:39:31.395Z,36.80
2023-02-11T04:40:31.396Z,33.70
2023-02-11T04:50:21.738Z,34.40
2023-02-11T04:51:21.503Z,38.90
2023-02-11T04:52:21.490Z,35.70
2023-02-11T04:53:21.480Z,35.80
2023-02-11T04:54:21.468Z,35.00
2023-02-11T04:55:21.460Z,36.10
2023-02-11T04:56:21.462Z,35.40
2023-02-11T04:57:21.441Z,32.70
2023-02-11T04:58:21.423Z,34.20
2023-02-11T04:59:21.427Z,35.10
2023-02-11T05:00:21.384Z,37.10
2023-02-11T05:01:21.427Z,34.80
2023-02-11T05:50:54.279Z,37.00
2023-02-11T05:51:55.267Z,38.10
2023-02-11T05:52:55.253Z,37.40
2023-02-11T05:53:55.240Z,37.00
2023-02-11T05:54:55.216Z,39.90
2023-02-11T05:55:55.206Z,36.80
2023-02-11T05:56:55.197Z,36.70
2023-02-11T05:57:55.210Z,37.00
2023-02-11T05:58:55.169Z,37.50
2023-02-11T05:59:55.151Z,35.20
2023-02-11T06:00:55.166Z,35.70
2023-02-11T06:01:55.138Z,36.50
2023-02-11T06:02:55.198Z,37.90
2023-02-11T06:03:55.155Z,34.20
2023-02-11T06:04:55.138Z,37.00
2023-02-11T06:05:55.103Z,37.80
2023-02-11T06:06:55.100Z,37.20
2023-02-11T06:13:34.147Z,43.60
2023-02-11T06:14:35.147Z,38.50
2023-02-11T06:15:35.099Z,39.30
2023-02-11T06:16:35.088Z,42.20
2023-02-11T06:17:35.124Z,40.80
2023-02-11T06:18:35.068Z,40.10
2023-02-11T06:19:35.084Z,37.50
2023-02-11T06:20:35.069Z,33.80
2023-02-11T06:21:43.286Z,45.70
2023-02-11T06:22:35.264Z,37.40
2023-02-11T06:23:35.008Z,39.80
2023-02-11T06:24:58.581Z,41.80
2023-02-11T06:25:34.986Z,35.10
2023-02-11T06:26:34.985Z,39.90
2023-02-11T06:27:34.991Z,36.50
2023-02-11T06:28:35.088Z,42.10
2023-02-11T06:29:34.931Z,39.60
2023-02-11T06:30:34.908Z,37.00
2023-02-11T06:31:35.057Z,38.90
2023-02-11T06:32:43.940Z,40.60
2023-02-11T06:33:34.914Z,38.50
2023-02-11T06:34:34.869Z,43.50
2023-02-11T06:35:34.855Z,41.60
2023-02-11T06:36:34.863Z,40.80
2023-02-11T06:37:34.831Z,43.10
2023-02-11T06:38:34.814Z,40.80
2023-02-11T06:39:34.804Z,39.00
2023-02-11T06:42:08.940Z,44.20
2023-02-11T06:43:09.545Z,41.40
2023-02-11T06:44:09.529Z,44.30
2023-02-11T06:45:09.576Z,40.70
2023-02-11T06:46:09.537Z,46.70
2023-02-11T06:47:09.527Z,44.60
2023-02-11T06:48:09.478Z,45.50
2023-02-11T06:49:09.476Z,41.30
2023-02-11T06:50:09.506Z,43.40
2023-02-11T06:51:09.440Z,42.40
2023-02-11T06:52:09.427Z,45.10
2023-02-11T06:53:09.417Z,45.50
2023-02-11T06:54:09.420Z,43.70
2023-02-11T06:55:09.394Z,41.90
2023-02-11T06:56:09.402Z,40.20
2023-02-11T06:57:09.361Z,51.10
2023-02-11T06:58:09.333Z,45.20
2023-02-11T06:59:09.322Z,39.70
2023-02-11T07:00:09.332Z,45.00
2023-02-11T07:01:09.322Z,46.10
2023-02-11T07:02:09.317Z,44.80
2023-02-11T07:03:09.298Z,41.20
2023-02-11T07:04:09.270Z,49.90
2023-02-11T07:05:09.256Z,46.50
2023-02-11T07:06:09.239Z,47.80
2023-02-11T07:07:09.226Z,45.90
2023-02-11T07:08:09.202Z,48.00
2023-02-11T07:09:09.248Z,46.50
2023-02-11T07:10:09.175Z,47.50
2023-02-11T07:11:09.180Z,57.80
2023-02-11T07:12:09.159Z,43.90
2023-02-11T07:13:09.143Z,50.60
2023-02-11T07:14:09.134Z,53.30
2023-02-11T07:15:09.120Z,50.60
2023-02-11T07:16:09.120Z,51.30
2023-02-11T07:17:09.107Z,49.70
2023-02-11T07:18:09.099Z,48.80
2023-02-11T07:19:09.070Z,46.90
2023-02-11T07:20:09.028Z,43.90
2023-02-11T07:21:09.035Z,47.50
2023-02-11T07:22:09.025Z,52.80
2023-02-11T07:23:09.010Z,50.40
2023-02-11T07:24:11.057Z,50.40
2023-02-11T07:25:09.018Z,51.50
2023-02-11T07:26:08.963Z,56.10
2023-02-11T07:27:08.957Z,47.30
2023-02-11T07:28:09.003Z,52.10
2023-02-11T07:29:08.974Z,49.10
2023-02-11T07:30:08.922Z,48.30
2023-02-11T07:31:09.019Z,49.80
2023-02-11T07:32:08.936Z,50.70
2023-02-11T07:33:08.876Z,53.80
2023-02-11T07:34:08.866Z,56.80
2023-02-11T07:35:08.839Z,48.50
2023-02-11T07:36:08.831Z,52.60
2023-02-11T07:37:08.815Z,49.70
2023-02-11T07:38:08.803Z,55.70
2023-02-11T07:39:08.792Z,49.20
2023-02-11T07:40:08.842Z,50.60
2023-02-11T07:41:08.762Z,45.80
2023-02-11T07:42:08.746Z,49.40
2023-02-11T07:43:08.736Z,45.80
2023-02-11T07:44:08.731Z,47.10
2023-02-11T07:45:08.751Z,45.80
2023-02-11T07:46:08.838Z,50.20
2023-02-11T07:47:08.817Z,50.60
2023-02-11T07:48:49.022Z,51.10
2023-02-11T07:49:08.673Z,47.20
2023-02-11T07:50:08.634Z,48.80
2023-02-11T07:51:08.631Z,51.20
2023-02-11T07:52:08.619Z,49.80
2023-02-11T07:53:08.621Z,51.00
2023-02-11T07:54:08.641Z,48.80
2023-02-11T07:55:09.693Z,53.30
2023-02-11T07:56:08.682Z,50.40
2023-02-11T07:57:08.560Z,44.00
2023-02-11T07:58:08.535Z,49.10
2023-02-11T07:59:08.522Z,47.70
2023-02-11T08:00:08.500Z,55.70
2023-02-11T08:01:08.567Z,51.20
2023-02-11T08:02:08.574Z,46.60
2023-02-11T08:03:08.499Z,57.00
2023-02-11T08:04:08.462Z,51.00
2023-02-11T08:05:08.492Z,52.00
2023-02-11T08:06:08.463Z,50.10
2023-02-11T08:07:08.413Z,56.30
2023-02-11T08:08:08.494Z,50.80
2023-02-11T08:09:08.396Z,49.80
2023-02-11T08:10:08.402Z,41.90
2023-02-11T08:11:08.401Z,45.40
2023-02-11T08:12:08.374Z,52.40
2023-02-11T08:13:08.361Z,51.70
2023-02-11T08:14:08.332Z,54.40
2023-02-11T08:15:08.332Z,58.70
2023-02-11T08:16:08.489Z,49.90
2023-02-11T08:17:08.307Z,51.80
2023-02-11T08:18:08.266Z,56.30
2023-02-11T08:19:08.300Z,58.00
2023-02-11T08:20:08.248Z,53.70
2023-02-11T08:21:08.293Z,53.70
2023-02-11T08:22:08.220Z,52.90
2023-02-11T08:23:08.235Z,51.80
2023-02-11T08:24:08.201Z,50.70
2023-02-11T08:25:08.165Z,55.20
2023-02-11T08:26:08.173Z,54.00
2023-02-11T08:27:08.145Z,47.70
2023-02-11T08:28:08.195Z,57.80
2023-02-11T08:29:08.143Z,50.80
2023-02-11T08:30:08.083Z,49.60
2023-02-11T08:31:08.115Z,48.50
2023-02-11T08:32:08.142Z,47.50
2023-02-11T08:33:08.116Z,50.10
2023-02-11T08:34:08.060Z,48.30
2023-02-11T08:35:08.096Z,54.30
2023-02-11T08:36:08.001Z,50.20
2023-02-11T08:37:08.001Z,53.80
2023-02-11T08:38:08.039Z,55.90
2023-02-11T08:39:18.712Z,50.90
2023-02-11T08:40:08.081Z,53.70
2023-02-11T08:41:07.977Z,50.90
2023-02-11T08:42:07.936Z,54.10
2023-02-11T08:43:08.223Z,45.80
2023-02-11T08:44:07.955Z,49.80
2023-02-11T09:13:38.071Z,49.00
2023-02-11T09:48:42.748Z,50.00
2023-02-11T09:49:43.734Z,55.20
2023-02-11T09:50:43.757Z,52.30
2023-02-11T09:51:43.729Z,45.50
2023-02-11T09:52:43.687Z,54.00
2023-02-11T09:53:43.675Z,51.30
2023-02-11T09:54:43.716Z,47.50
2023-02-11T09:55:43.658Z,57.10
2023-02-11T09:56:43.717Z,55.30
2023-02-11T09:57:43.622Z,46.70
2023-02-11T09:58:43.679Z,46.60
2023-02-11T09:59:43.639Z,49.40
2023-02-11T10:00:43.670Z,47.90
2023-02-11T10:01:43.627Z,44.50
2023-02-11T10:02:43.554Z,49.30
2023-02-11T10:03:43.552Z,54.60
2023-02-11T10:04:43.611Z,45.90
2023-02-11T10:05:43.508Z,52.30
2023-02-11T10:06:43.506Z,51.50
2023-02-11T10:07:43.488Z,51.20
2023-02-11T10:08:43.473Z,51.00
2023-02-11T10:09:43.519Z,54.90
2023-02-11T10:10:43.454Z,45.00
2023-02-11T10:11:43.459Z,49.80
2023-02-11T10:12:43.470Z,46.40
2023-02-11T10:13:43.414Z,51.10
2023-02-11T10:14:43.430Z,46.10
2023-02-11T10:15:43.450Z,49.30
2023-02-11T10:16:43.393Z,54.00
2023-02-11T10:17:43.350Z,48.10
2023-02-11T10:18:43.401Z,54.50
2023-02-11T10:19:43.347Z,53.50
2023-02-11T10:20:43.325Z,50.80
2023-02-11T10:21:43.332Z,48.00
2023-02-11T10:22:43.292Z,49.10
2023-02-11T10:23:43.278Z,51.00
2023-02-11T10:24:43.326Z,48.00
2023-02-11T10:25:45.281Z,55.20
2023-02-11T10:26:43.266Z,49.30
2023-02-11T10:27:43.232Z,51.90
2023-02-11T10:28:43.396Z,47.80
2023-02-11T10:29:43.226Z,44.90
2023-02-11T10:30:43.315Z,48.30
2023-02-11T10:31:43.200Z,47.50
2023-02-11T10:32:43.211Z,54.00
2023-02-11T10:33:43.168Z,51.70
2023-02-11T10:34:43.140Z,49.30
2023-02-11T10:35:43.152Z,46.80
2023-02-11T10:36:43.101Z,55.10
2023-02-11T10:37:44.627Z,52.50
2023-02-11T10:38:43.072Z,55.50
2023-02-11T10:39:43.108Z,53.20
2023-02-11T10:40:43.070Z,54.40
2023-02-11T10:41:43.050Z,51.30
2023-02-11T10:42:43.022Z,53.20
2023-02-11T10:43:43.046Z,55.00
2023-02-11T10:44:43.067Z,50.20
2023-02-11T10:45:42.993Z,50.70
2023-02-11T10:46:43.044Z,50.50
2023-02-11T10:47:42.955Z,49.30
2023-02-11T10:48:43.168Z,50.40
2023-02-11T10:49:42.936Z,54.20
2023-02-11T10:50:42.917Z,53.80
2023-02-11T10:51:42.931Z,51.50
2023-02-11T10:52:42.904Z,51.40
2023-02-11T10:53:42.872Z,47.10
2023-02-11T10:54:42.870Z,49.80
2023-02-11T10:55:43.256Z,53.10
2023-02-11T10:56:42.838Z,58.40
2023-02-11T10:57:42.827Z,51.90
2023-02-11T10:58:42.971Z,53.60
2023-02-11T10:59:42.848Z,51.50
2023-02-11T11:00:42.825Z,54.40
2023-02-11T11:01:42.855Z,50.80
2023-02-11T11:02:42.758Z,57.10
2023-02-11T11:03:42.763Z,55.60
2023-02-11T11:04:42.810Z,55.70
2023-02-11T11:05:42.812Z,56.80
2023-02-11T11:06:42.714Z,47.70
2023-02-11T11:07:42.725Z,47.80
2023-02-11T11:08:42.733Z,51.20
2023-02-11T11:09:42.655Z,53.80
2023-02-11T11:10:42.648Z,56.30
2023-02-11T11:11:42.674Z,52.70
2023-02-11T11:12:42.640Z,50.60
2023-02-11T11:13:42.627Z,49.00
2023-02-11T11:14:42.689Z,47.80
2023-02-11T11:15:42.614Z,57.80
2023-02-11T11:16:42.580Z,52.80
2023-02-11T11:17:42.618Z,51.50
2023-02-11T11:18:42.591Z,48.70
2023-02-11T11:19:42.584Z,51.50
2023-02-11T11:20:42.545Z,49.10
2023-02-11T11:21:42.532Z,50.90
2023-02-11T11:22:42.477Z,52.10
2023-02-11T11:23:42.476Z,50.30
2023-02-11T11:24:42.515Z,48.40
2023-02-11T11:25:42.470Z,51.10
2023-02-11T11:26:42.443Z,57.50
2023-02-11T11:27:42.435Z,51.70
2023-02-11T11:28:42.424Z,54.10
2023-02-11T11:29:42.401Z,46.00
2023-02-11T11:30:42.417Z,50.10
2023-02-11T11:31:42.453Z,53.70
2023-02-11T11:32:42.359Z,49.30
2023-02-11T11:33:42.338Z,56.40
2023-02-11T11:34:42.440Z,44.00
2023-02-11T11:35:42.320Z,49.40
2023-02-11T11:36:42.336Z,49.70
2023-02-11T11:37:42.338Z,53.20
2023-02-11T11:38:42.273Z,50.30
2023-02-11T11:39:42.327Z,44.50
2023-02-11T11:40:42.335Z,49.80
2023-02-11T11:41:42.283Z,51.40
2023-02-11T11:42:42.229Z,48.00
2023-02-11T11:43:42.219Z,44.20
2023-02-11T11:44:42.186Z,46.40
2023-02-11T11:45:42.304Z,50.60
2023-02-11T11:46:42.281Z,47.90
2023-02-11T11:47:42.188Z,49.50
2023-02-11T11:48:42.132Z,55.60
2023-02-11T11:49:42.154Z,51.20
2023-02-11T11:50:42.108Z,50.30
2023-02-11T11:51:42.107Z,44.60
2023-02-11T11:52:42.089Z,47.60
2023-02-11T11:53:42.067Z,48.30
2023-02-11T11:54:42.042Z,45.50
2023-02-11T11:55:42.048Z,54.00
2023-02-11T11:56:42.121Z,50.10
2023-02-11T11:57:42.053Z,44.50
2023-02-11T11:58:42.105Z,46.50
2023-02-11T11:59:41.979Z,49.20
2023-02-11T12:00:42.015Z,53.00
2023-02-11T12:01:41.978Z,50.20
2023-02-11T12:02:42.037Z,50.70
2023-02-11T12:03:41.964Z,49.10
2023-02-11T12:04:41.926Z,47.20
2023-02-11T12:05:41.929Z,49.30
2023-02-11T12:06:41.886Z,45.50
2023-02-11T12:07:41.869Z,50.40
2023-02-11T12:08:41.850Z,49.30
2023-02-11T12:09:41.901Z,44.90
2023-02-11T12:10:41.866Z,46.40
2023-02-11T12:11:41.825Z,49.50
2023-02-11T12:12:41.802Z,49.00
2023-02-11T12:13:41.801Z,52.90
2023-02-11T12:14:41.813Z,45.70
2023-02-11T12:15:41.757Z,45.30
2023-02-11T12:16:41.788Z,47.00
2023-02-11T12:17:41.796Z,50.60
2023-02-11T12:18:41.719Z,42.90
2023-02-11T12:19:41.709Z,48.60
2023-02-11T12:20:41.693Z,53.60
2023-02-11T12:21:41.711Z,41.80
2023-02-11T12:22:41.717Z,48.30
2023-02-11T12:23:41.691Z,52.60
2023-02-11T12:24:41.660Z,48.60
2023-02-11T12:25:41.641Z,49.80
2023-02-11T12:26:41.683Z,45.90
2023-02-11T12:27:41.654Z,46.50
2023-02-11T12:28:41.789Z,44.60
2023-02-11T12:29:41.596Z,49.20
2023-02-11T12:30:41.583Z,46.80
2023-02-11T12:31:41.619Z,49.10
2023-02-11T12:32:41.553Z,48.20
2023-02-11T12:33:41.527Z,54.40
2023-02-11T12:34:41.555Z,42.70
2023-02-11T12:35:41.493Z,42.40
2023-02-11T12:36:41.497Z,47.70
2023-02-11T12:37:41.488Z,46.90
2023-02-11T12:38:41.512Z,41.50
2023-02-11T12:39:41.485Z,44.30
2023-02-11T12:40:41.433Z,45.60
2023-02-11T12:41:41.441Z,46.20
2023-02-11T12:42:41.406Z,50.00
2023-02-11T12:43:41.393Z,44.40
2023-02-11T12:44:41.427Z,46.80
2023-02-11T12:45:41.431Z,42.50
2023-02-11T12:46:41.368Z,49.40
2023-02-11T12:47:41.345Z,42.90
2023-02-11T12:48:41.371Z,40.70
2023-02-11T12:49:41.307Z,42.80
2023-02-11T12:50:41.320Z,45.80
2023-02-11T12:51:41.296Z,45.90
2023-02-11T12:52:41.274Z,44.60
2023-02-11T12:53:41.267Z,42.90
2023-02-11T12:54:41.238Z,44.90
2023-02-11T12:55:41.242Z,47.90
2023-02-11T12:56:41.227Z,41.70
2023-02-11T12:57:41.212Z,44.00
2023-02-11T12:58:45.441Z,42.50
2023-02-11T12:59:41.194Z,42.10
2023-02-11T13:00:41.260Z,45.20
2023-02-11T13:01:41.239Z,46.90
2023-02-11T13:02:41.230Z,44.10
2023-02-11T13:03:41.124Z,40.20
2023-02-11T13:04:41.147Z,43.50
2023-02-11T13:05:41.118Z,37.30
2023-02-11T13:06:41.146Z,46.10
2023-02-11T13:07:41.125Z,41.20
2023-02-11T13:08:41.061Z,40.20
2023-02-11T13:09:41.065Z,46.50
2023-02-11T13:10:41.057Z,46.30
2023-02-11T13:11:41.040Z,40.30
2023-02-11T13:12:41.134Z,37.60
2023-02-11T13:13:40.993Z,42.50
2023-02-11T13:14:40.987Z,40.90
2023-02-11T13:15:40.969Z,42.20
2023-02-11T13:16:41.032Z,41.90
2023-02-11T13:17:41.026Z,52.00
2023-02-11T13:18:40.919Z,36.90
2023-02-11T13:19:40.913Z,47.70
2023-02-11T13:20:40.916Z,40.30
2023-02-11T13:21:40.922Z,39.70
2023-02-11T13:23:18.347Z,46.80
2023-02-11T13:23:40.865Z,42.70
2023-02-11T13:40:08.935Z,45.70
2023-02-11T13:41:06.562Z,45.70
2023-02-11T13:42:06.543Z,44.40
2023-02-11T13:43:06.529Z,51.90
2023-02-11T13:46:35.527Z,44.40
2023-02-11T13:47:38.630Z,42.10
2023-02-11T13:48:36.492Z,40.40
2023-02-11T13:54:12.298Z,36.10
2023-02-11T13:54:40.132Z,35.50
2023-02-11T13:56:03.236Z,39.50
2023-02-11T13:56:40.105Z,46.90
2023-02-11T13:57:50.684Z,45.80
2023-02-11T13:58:40.114Z,45.50
2023-02-11T13:59:40.540Z,39.40
2023-02-11T14:02:06.400Z,45.50
2023-02-11T14:02:53.235Z,46.30
2023-02-11T14:03:53.202Z,41.10
2023-02-11T14:04:53.195Z,40.90
2023-02-11T14:05:53.140Z,38.60
2023-02-11T14:06:53.132Z,43.60
2023-02-11T14:07:53.122Z,41.60
2023-02-11T14:08:53.131Z,41.80
2023-02-11T14:09:53.147Z,39.90
2023-02-11T14:10:53.412Z,40.40
2023-02-11T14:11:55.154Z,43.20
2023-02-11T14:12:53.147Z,43.60
2023-02-11T14:13:53.056Z,43.90
2023-02-11T14:14:53.034Z,40.30
2023-02-11T14:15:53.053Z,42.80
2023-02-11T14:16:53.049Z,45.10
2023-02-11T14:17:53.042Z,41.80
2023-02-11T14:18:53.018Z,42.80
2023-02-11T14:19:52.976Z,40.90
2023-02-11T14:20:53.213Z,45.70
2023-02-11T14:21:52.929Z,40.80
2023-02-11T14:22:52.918Z,38.40
2023-02-11T14:23:52.910Z,40.70
2023-02-11T14:24:52.899Z,41.10
2023-02-11T14:25:52.883Z,40.60
2023-02-11T14:26:52.954Z,44.90
2023-02-11T14:27:52.855Z,37.60
2023-02-11T14:28:52.863Z,43.80
2023-02-11T14:29:52.817Z,40.30
2023-02-11T14:30:53.212Z,45.30
2023-02-11T14:31:52.950Z,39.30
2023-02-11T14:32:52.829Z,38.40
2023-02-11T14:33:52.783Z,39.80
2023-02-11T14:34:52.800Z,36.40
2023-02-11T14:35:53.169Z,41.60
2023-02-11T14:36:52.818Z,41.00
2023-02-11T14:37:52.752Z,42.40
2023-02-11T14:38:52.738Z,42.70
2023-02-11T14:39:52.728Z,39.90
2023-02-11T14:40:53.020Z,36.70
2023-02-11T14:41:52.693Z,39.80
2023-02-11T14:42:52.709Z,43.50
2023-02-11T14:43:52.648Z,40.30
2023-02-11T14:44:52.637Z,40.50
2023-02-11T14:45:52.655Z,39.50
2023-02-11T14:46:52.589Z,41.90
2023-02-11T14:47:52.582Z,41.80
2023-02-11T14:48:52.663Z,40.80
2023-02-11T14:49:52.551Z,37.70
2023-02-11T14:50:52.879Z,36.90
2023-02-11T14:51:52.565Z,39.30
2023-02-11T14:52:52.542Z,38.10
2023-02-11T14:53:52.716Z,41.00
2023-02-11T14:54:52.519Z,41.40
2023-02-11T14:55:52.531Z,38.40
2023-02-11T14:56:52.496Z,39.70
2023-02-11T14:57:52.451Z,41.20
2023-02-11T14:58:52.445Z,38.80
2023-02-11T14:59:52.499Z,39.20
2023-02-11T15:00:52.752Z,42.00
2023-02-11T15:01:52.499Z,46.20
2023-02-11T15:02:52.401Z,42.20
2023-02-11T15:03:52.355Z,38.90
2023-02-11T15:04:52.370Z,41.60
2023-02-11T15:05:52.345Z,40.80
2023-02-11T15:06:52.322Z,41.30
2023-02-11T15:07:52.465Z,44.90
2023-02-11T15:08:52.303Z,39.40
2023-02-11T15:09:52.328Z,45.80
2023-02-11T15:10:52.514Z,45.50
2023-02-11T15:11:52.249Z,40.20
2023-02-11T15:12:52.242Z,48.20
2023-02-11T15:13:55.070Z,47.80
2023-02-11T15:14:52.584Z,42.80
2023-02-11T15:15:52.301Z,43.30
2023-02-11T15:16:52.234Z,47.60
2023-02-11T15:17:52.179Z,43.80
2023-02-11T15:18:52.239Z,42.00
2023-02-11T15:19:52.142Z,39.90
2023-02-11T15:20:52.598Z,41.00
2023-02-11T15:21:52.117Z,40.70
2023-02-11T15:22:52.105Z,42.70
2023-02-11T15:23:52.094Z,42.70
2023-02-11T15:24:52.118Z,44.50
2023-02-11T15:25:52.106Z,39.00
2023-02-11T15:26:52.076Z,42.70
2023-02-11T15:27:52.042Z,42.10
2023-02-11T15:28:52.269Z,41.00
2023-02-11T15:29:52.082Z,41.00